Nelsonville, Ohio
Current Conditions -  °F | °C
As of 9:10 AM on Thursday 29 Jan 2015 (Local Time) from KUNI Reporting Station
Unknown Precip Unknown Precip  
Wind Chill: 27°   Ceiling: 4000
Heat Index: 32°   Visibility: 10mi
Dew Point: 24°   Wind: 5mph
Humidity: 73%   Direction: 180°S
Pressure: 29.95"   Gusts: NA
Location:  39.46°N, 82.23°W
Report Text: KUNI 291410Z AUTO 18004KT 10SM UP BKN040 BKN055 OVC070 00/M04 A2995 RMK AO2 T10011045
Loading
Personal Weather Stations






























Interactive Weather Map New forecast layout! Learn more

10-Day Weather Forecast

Advertisements
Track Severe Weather on mobile